createdAt,value
2018-01-24T00:00:09.835Z,9.79
2018-01-24T00:01:10.410Z,9.69
2018-01-24T00:02:10.974Z,9.87
2018-01-24T00:03:11.544Z,9.86
2018-01-24T00:04:12.115Z,9.83
2018-01-24T00:05:12.686Z,9.86
2018-01-24T00:06:13.257Z,9.84
2018-01-24T00:07:13.828Z,9.84
2018-01-24T00:08:14.397Z,9.76
2018-01-24T00:09:14.966Z,9.94
2018-01-24T00:10:15.536Z,9.97
2018-01-24T00:11:16.107Z,9.95
2018-01-24T00:12:16.679Z,10.02
2018-01-24T00:13:17.249Z,10.01
2018-01-24T00:14:17.822Z,10.07
2018-01-24T00:15:18.408Z,10.02
2018-01-24T00:16:18.981Z,10.02
2018-01-24T00:17:19.554Z,10.02
2018-01-24T00:18:20.125Z,10.02
2018-01-24T00:19:20.696Z,10.09
2018-01-24T00:20:21.267Z,10.15
2018-01-24T00:21:21.837Z,10.01
2018-01-24T00:22:22.410Z,10.01
2018-01-24T00:23:22.996Z,10.13
2018-01-24T00:24:23.578Z,10.10
2018-01-24T00:25:24.141Z,10.01
2018-01-24T00:26:24.712Z,10.04
2018-01-24T00:27:25.285Z,10.09
2018-01-24T00:28:25.855Z,10.12
2018-01-24T00:29:26.424Z,10.10
2018-01-24T00:30:27.009Z,10.15
2018-01-24T00:31:27.579Z,10.20
2018-01-24T00:32:28.148Z,10.15
2018-01-24T00:33:28.735Z,10.16
2018-01-24T00:34:29.304Z,10.13
2018-01-24T00:35:29.874Z,10.17
2018-01-24T00:36:30.445Z,10.20
2018-01-24T00:37:31.018Z,10.22
2018-01-24T00:38:31.589Z,10.15
2018-01-24T00:39:32.162Z,10.19
2018-01-24T00:40:32.733Z,10.20
2018-01-24T00:41:33.304Z,10.10
2018-01-24T00:42:33.875Z,10.25
2018-01-24T00:43:34.446Z,10.33
2018-01-24T00:44:35.017Z,10.26
2018-01-24T00:45:35.590Z,10.20
2018-01-24T00:46:36.176Z,10.20
2018-01-24T00:47:36.749Z,10.28
2018-01-24T00:48:37.323Z,10.16
2018-01-24T00:49:37.894Z,10.23
2018-01-24T00:50:38.466Z,10.22
2018-01-24T00:51:39.039Z,10.19
2018-01-24T00:52:39.627Z,10.20
2018-01-24T00:53:40.183Z,10.31
2018-01-24T00:54:40.756Z,10.35
2018-01-24T00:55:41.326Z,10.33
2018-01-24T00:56:41.897Z,10.38
2018-01-24T00:57:42.471Z,10.31
2018-01-24T00:58:43.042Z,10.41
2018-01-24T00:59:43.613Z,10.38
2018-01-24T01:00:44.189Z,10.38
2018-01-24T01:01:44.757Z,10.35
2018-01-24T01:02:45.329Z,10.44
2018-01-24T01:03:45.903Z,10.33
2018-01-24T01:04:46.475Z,10.42
2018-01-24T01:05:47.061Z,10.37
2018-01-24T01:06:47.646Z,10.51
2018-01-24T01:07:48.205Z,10.51
2018-01-24T01:08:48.777Z,10.51
2018-01-24T01:09:49.349Z,10.61
2018-01-24T01:10:49.919Z,10.54
2018-01-24T01:11:50.492Z,10.41
2018-01-24T01:12:51.063Z,10.46
2018-01-24T01:13:51.637Z,10.54
2018-01-24T01:14:52.208Z,10.53
2018-01-24T01:15:52.778Z,10.59
2018-01-24T01:16:53.349Z,10.56
2018-01-24T01:17:53.921Z,10.59
2018-01-24T01:18:54.495Z,10.59
2018-01-24T01:19:55.067Z,10.63
2018-01-24T01:20:55.638Z,10.61
2018-01-24T01:21:56.210Z,10.72
2018-01-24T01:22:56.780Z,10.69
2018-01-24T01:23:57.352Z,10.72
2018-01-24T01:24:57.924Z,10.67
2018-01-24T01:25:58.497Z,10.67
2018-01-24T01:26:59.069Z,10.69
2018-01-24T01:27:59.642Z,10.76
2018-01-24T01:29:00.216Z,10.79
2018-01-24T01:30:00.785Z,10.79
2018-01-24T01:31:01.359Z,10.75
2018-01-24T01:32:01.930Z,10.69
2018-01-24T01:33:02.503Z,10.79
2018-01-24T01:34:03.074Z,10.79
2018-01-24T01:35:03.643Z,10.76
2018-01-24T01:36:04.215Z,10.81
2018-01-24T01:37:04.789Z,10.78
2018-01-24T01:38:05.363Z,10.86
2018-01-24T01:39:05.947Z,10.79
2018-01-24T01:40:06.519Z,10.86
2018-01-24T01:41:07.093Z,10.79
2018-01-24T01:42:07.664Z,10.90
2018-01-24T01:43:08.242Z,10.86
2018-01-24T01:44:08.807Z,10.87
2018-01-24T01:45:09.379Z,10.92
2018-01-24T01:46:09.952Z,10.86
2018-01-24T01:47:10.524Z,10.84
2018-01-24T01:48:11.113Z,10.99
2018-01-24T01:49:11.682Z,10.90
2018-01-24T01:50:12.253Z,11.00
2018-01-24T01:51:12.825Z,10.86
2018-01-24T01:52:13.395Z,10.96
2018-01-24T01:53:13.965Z,11.00
2018-01-24T01:54:14.538Z,10.92
2018-01-24T01:55:15.110Z,10.89
2018-01-24T01:56:15.682Z,10.89
2018-01-24T01:57:16.252Z,10.86
2018-01-24T01:58:16.824Z,10.94
2018-01-24T01:59:17.395Z,11.04
2018-01-24T02:00:17.967Z,10.92
2018-01-24T02:01:18.539Z,11.00
2018-01-24T02:02:19.112Z,11.00
2018-01-24T02:03:19.684Z,11.05
2018-01-24T02:04:20.270Z,11.17
2018-01-24T02:05:20.842Z,11.12
2018-01-24T02:06:21.414Z,11.18
2018-01-24T02:07:21.986Z,11.18
2018-01-24T02:08:22.557Z,11.11
2018-01-24T02:09:23.131Z,11.15
2018-01-24T02:10:23.713Z,11.17
2018-01-24T02:11:24.297Z,11.12
2018-01-24T02:12:24.871Z,11.04
2018-01-24T02:13:25.442Z,11.12
2018-01-24T02:14:26.014Z,11.08
2018-01-24T02:15:26.587Z,11.08
2018-01-24T02:16:27.160Z,11.19
2018-01-24T02:17:27.734Z,11.17
2018-01-24T02:18:28.321Z,11.12
2018-01-24T02:19:28.958Z,11.04
2018-01-24T02:20:29.478Z,11.04
2018-01-24T02:21:30.051Z,11.05
2018-01-24T02:22:30.621Z,11.18
2018-01-24T02:23:31.193Z,11.22
2018-01-24T02:24:31.778Z,11.15
2018-01-24T02:25:32.348Z,11.14
2018-01-24T02:26:32.918Z,11.07
2018-01-24T02:27:33.490Z,11.17
2018-01-24T02:28:34.063Z,11.11
2018-01-24T02:29:34.636Z,11.11
2018-01-24T02:30:35.220Z,11.10
2018-01-24T02:31:35.791Z,11.12
2018-01-24T02:32:36.366Z,11.22
2018-01-24T02:33:36.936Z,11.19
2018-01-24T02:34:37.507Z,11.15
2018-01-24T02:35:38.079Z,11.15
2018-01-24T02:36:38.651Z,11.14
2018-01-24T02:37:39.222Z,11.27
2018-01-24T02:38:39.794Z,11.07
2018-01-24T02:39:40.367Z,11.14
2018-01-24T02:40:40.939Z,11.17
2018-01-24T02:41:41.527Z,11.25
2018-01-24T02:42:42.100Z,11.23
2018-01-24T02:43:42.671Z,11.14
2018-01-24T02:44:43.241Z,11.14
2018-01-24T02:45:43.813Z,11.14
2018-01-24T02:46:44.384Z,11.11
2018-01-24T02:47:44.958Z,11.19
2018-01-24T02:48:45.531Z,11.23
2018-01-24T02:49:46.126Z,11.27
2018-01-24T02:50:46.692Z,11.26
2018-01-24T02:51:47.262Z,11.23
2018-01-24T02:52:47.835Z,11.15
2018-01-24T02:53:48.405Z,11.14
2018-01-24T02:54:48.977Z,11.11
2018-01-24T02:55:49.550Z,11.15
2018-01-24T02:56:50.124Z,11.18
2018-01-24T02:57:50.697Z,11.14
2018-01-24T02:58:51.269Z,11.22
2018-01-24T02:59:51.840Z,11.18
2018-01-24T03:00:52.413Z,11.19
2018-01-24T03:01:52.983Z,11.15
2018-01-24T03:02:53.560Z,11.17
2018-01-24T03:03:54.128Z,11.15
2018-01-24T03:04:54.700Z,11.14
2018-01-24T03:05:55.271Z,11.12
2018-01-24T03:06:55.843Z,11.14
2018-01-24T03:07:56.414Z,11.11
2018-01-24T03:08:56.987Z,11.17
2018-01-24T03:09:57.560Z,11.23
2018-01-24T03:10:58.134Z,11.19
2018-01-24T03:11:58.705Z,11.10
2018-01-24T03:12:59.293Z,11.18
2018-01-24T03:13:59.864Z,11.15
2018-01-24T03:15:00.437Z,11.11
2018-01-24T03:16:01.009Z,11.14
2018-01-24T03:17:01.581Z,11.18
2018-01-24T03:18:02.154Z,11.15
2018-01-24T03:19:02.724Z,11.26
2018-01-24T03:20:03.298Z,11.17
2018-01-24T03:21:03.868Z,11.07
2018-01-24T03:22:04.454Z,11.15
2018-01-24T03:23:05.026Z,11.25
2018-01-24T03:24:05.597Z,11.12
2018-01-24T03:25:06.169Z,11.17
2018-01-24T03:26:06.739Z,11.26
2018-01-24T03:27:07.313Z,11.11
2018-01-24T03:28:07.886Z,11.26
2018-01-24T03:29:08.465Z,11.29
2018-01-24T03:30:09.031Z,11.30
2018-01-24T03:31:09.603Z,11.29
2018-01-24T03:32:10.174Z,11.27
2018-01-24T03:33:10.745Z,11.26
2018-01-24T03:34:11.317Z,11.25
2018-01-24T03:35:11.902Z,11.18
2018-01-24T03:36:12.474Z,11.19
2018-01-24T03:37:13.059Z,11.22
2018-01-24T03:38:13.631Z,11.29
2018-01-24T03:39:14.204Z,11.29
2018-01-24T03:40:14.790Z,11.30
2018-01-24T03:41:15.361Z,11.30
2018-01-24T03:42:15.936Z,11.41
2018-01-24T03:43:16.508Z,11.30
2018-01-24T03:44:17.083Z,11.30
2018-01-24T03:45:17.656Z,11.43
2018-01-24T03:46:18.226Z,11.33
2018-01-24T03:47:18.798Z,11.22
2018-01-24T03:48:19.372Z,11.22
2018-01-24T03:49:19.945Z,11.26
2018-01-24T03:50:20.515Z,11.26
2018-01-24T03:51:21.088Z,11.30
2018-01-24T03:52:21.659Z,11.26
2018-01-24T03:53:22.231Z,11.23
2018-01-24T03:54:22.804Z,11.30
2018-01-24T03:55:23.391Z,11.45
2018-01-24T03:56:23.959Z,11.33
2018-01-24T03:57:24.531Z,11.37
2018-01-24T03:58:25.102Z,11.32
2018-01-24T03:59:25.676Z,11.35
2018-01-24T04:00:26.263Z,11.43
2018-01-24T04:01:26.835Z,11.47
2018-01-24T04:02:27.410Z,11.41
2018-01-24T04:03:27.981Z,11.35
2018-01-24T04:04:28.552Z,11.41
2018-01-24T04:05:29.124Z,11.37
2018-01-24T04:06:29.695Z,11.23
2018-01-24T04:07:30.269Z,11.35
2018-01-24T04:08:30.840Z,11.29
2018-01-24T04:09:31.415Z,11.35
2018-01-24T04:10:32.020Z,11.47
2018-01-24T04:11:32.557Z,11.36
2018-01-24T04:12:33.126Z,11.45
2018-01-24T04:13:33.701Z,11.37
2018-01-24T04:14:34.270Z,11.45
2018-01-24T04:15:34.843Z,11.50
2018-01-24T04:16:35.418Z,11.45
2018-01-24T04:17:35.990Z,11.47
2018-01-24T04:18:36.564Z,11.40
2018-01-24T04:19:37.138Z,11.33
2018-01-24T04:20:37.721Z,11.30
2018-01-24T04:21:38.293Z,11.33
2018-01-24T04:22:38.866Z,11.36
2018-01-24T04:23:39.439Z,11.41
2018-01-24T04:24:40.013Z,11.40
2018-01-24T04:25:40.584Z,11.45
2018-01-24T04:26:41.159Z,11.41
2018-01-24T04:27:41.745Z,11.25
2018-01-24T04:28:42.317Z,11.30
2018-01-24T04:29:42.891Z,11.30
2018-01-24T04:30:43.474Z,11.36
2018-01-24T04:31:44.046Z,11.45
2018-01-24T04:32:44.618Z,11.45
2018-01-24T04:33:45.190Z,11.33
2018-01-24T04:34:45.762Z,11.41
2018-01-24T04:35:46.335Z,11.36
2018-01-24T04:36:46.910Z,11.35
2018-01-24T04:37:47.483Z,11.29
2018-01-24T04:38:48.054Z,11.32
2018-01-24T04:39:48.624Z,11.44
2018-01-24T04:40:49.196Z,11.44
2018-01-24T04:41:49.769Z,11.47
2018-01-24T04:42:50.343Z,11.37
2018-01-24T04:43:50.919Z,11.41
2018-01-24T04:44:51.490Z,11.41
2018-01-24T04:45:52.063Z,11.29
2018-01-24T04:46:52.635Z,11.23
2018-01-24T04:47:53.205Z,11.40
2018-01-24T04:48:53.779Z,11.36
2018-01-24T04:49:54.352Z,11.35
2018-01-24T04:50:54.927Z,11.27
2018-01-24T04:51:55.512Z,11.26
2018-01-24T04:52:56.085Z,11.35
2018-01-24T04:53:56.658Z,11.43
2018-01-24T04:54:57.231Z,11.29
2018-01-24T04:55:57.804Z,11.23
2018-01-24T04:56:58.377Z,11.25
2018-01-24T04:57:58.951Z,11.36
2018-01-24T04:58:59.522Z,11.30
2018-01-24T05:00:00.093Z,11.26
2018-01-24T05:01:00.664Z,11.23
2018-01-24T05:02:01.236Z,11.29
2018-01-24T05:03:01.822Z,11.23
2018-01-24T05:04:02.393Z,11.25
2018-01-24T05:05:02.965Z,11.26
2018-01-24T05:06:03.536Z,11.30
2018-01-24T05:07:04.110Z,11.29
2018-01-24T05:08:04.685Z,11.27
2018-01-24T05:09:05.257Z,11.18
2018-01-24T05:10:05.829Z,11.27
2018-01-24T05:11:06.402Z,11.22
2018-01-24T05:12:06.974Z,11.22
2018-01-24T05:13:07.597Z,11.23
2018-01-24T05:14:08.119Z,11.26
2018-01-24T05:15:08.692Z,11.26
2018-01-24T05:16:09.262Z,11.23
2018-01-24T05:17:09.837Z,11.19
2018-01-24T05:18:10.407Z,11.22
2018-01-24T05:19:10.979Z,11.22
2018-01-24T05:20:11.551Z,11.25
2018-01-24T05:21:12.139Z,11.27
2018-01-24T05:22:12.711Z,11.30
2018-01-24T05:23:13.283Z,11.32
2018-01-24T05:24:13.857Z,11.26
2018-01-24T05:25:14.431Z,11.23
2018-01-24T05:26:15.003Z,11.25
2018-01-24T05:27:15.575Z,11.15
2018-01-24T05:28:16.147Z,11.19
2018-01-24T05:29:16.718Z,11.27
2018-01-24T05:30:17.290Z,11.25
2018-01-24T05:31:17.862Z,11.18
2018-01-24T05:32:18.435Z,11.26
2018-01-24T05:33:19.008Z,11.25
2018-01-24T05:34:19.580Z,11.26
2018-01-24T05:35:20.152Z,11.15
2018-01-24T05:36:20.724Z,11.26
2018-01-24T05:37:21.296Z,11.17
2018-01-24T05:38:21.869Z,11.26
2018-01-24T05:39:22.454Z,11.26
2018-01-24T05:40:23.024Z,11.17
2018-01-24T05:41:23.598Z,11.22
2018-01-24T05:42:24.171Z,11.10
2018-01-24T05:43:24.743Z,11.11
2018-01-24T05:44:25.315Z,11.27
2018-01-24T05:45:25.887Z,11.17
2018-01-24T05:46:26.473Z,11.17
2018-01-24T05:47:27.047Z,11.14
2018-01-24T05:48:27.618Z,11.12
2018-01-24T05:49:28.192Z,11.17
2018-01-24T05:50:28.762Z,11.12
2018-01-24T05:51:29.335Z,11.11
2018-01-24T05:52:29.909Z,11.07
2018-01-24T05:53:30.480Z,11.15
2018-01-24T05:54:31.053Z,11.17
2018-01-24T05:55:31.625Z,11.04
2018-01-24T05:56:32.198Z,11.02
2018-01-24T05:57:32.771Z,11.08
2018-01-24T05:58:33.343Z,11.00
2018-01-24T05:59:33.917Z,10.96
2018-01-24T06:00:34.489Z,10.97
2018-01-24T06:01:35.063Z,10.89
2018-01-24T06:02:35.634Z,11.04
2018-01-24T06:03:36.206Z,10.93
2018-01-24T06:04:36.778Z,11.00
2018-01-24T06:05:37.353Z,10.99
2018-01-24T06:06:37.927Z,10.94
2018-01-24T06:07:38.499Z,10.90
2018-01-24T06:08:39.075Z,10.99
2018-01-24T06:09:39.644Z,10.99
2018-01-24T06:10:40.231Z,10.96
2018-01-24T06:11:40.804Z,10.90
2018-01-24T06:12:41.377Z,10.99
2018-01-24T06:13:41.963Z,10.96
2018-01-24T06:14:42.536Z,11.00
2018-01-24T06:15:43.108Z,10.99
2018-01-24T06:16:43.682Z,11.11
2018-01-24T06:17:44.257Z,11.15
2018-01-24T06:18:44.830Z,11.17
2018-01-24T06:19:45.403Z,11.10
2018-01-24T06:20:45.975Z,11.11
2018-01-24T06:21:46.561Z,11.18
2018-01-24T06:22:47.135Z,11.23
2018-01-24T06:23:47.707Z,11.33
2018-01-24T06:24:48.278Z,11.30
2018-01-24T06:25:48.853Z,11.43
2018-01-24T06:26:49.426Z,11.45
2018-01-24T06:27:50.002Z,11.45
2018-01-24T06:28:50.573Z,11.48
2018-01-24T06:29:51.146Z,11.51
2018-01-24T06:30:51.718Z,11.43
2018-01-24T06:31:52.292Z,11.45
2018-01-24T06:32:52.868Z,11.41
2018-01-24T06:33:53.439Z,11.43
2018-01-24T06:34:54.013Z,11.48
2018-01-24T06:35:54.585Z,11.50
2018-01-24T06:36:55.157Z,11.45
2018-01-24T06:37:55.732Z,11.45
2018-01-24T06:38:56.304Z,11.44
2018-01-24T06:39:56.879Z,11.45
2018-01-24T06:40:57.467Z,11.44
2018-01-24T06:41:58.039Z,11.47
2018-01-24T06:42:58.627Z,11.63
2018-01-24T06:43:59.200Z,11.54
2018-01-24T06:44:59.773Z,11.60
2018-01-24T06:46:00.354Z,11.50
2018-01-24T06:47:00.917Z,11.55
2018-01-24T06:48:01.488Z,11.57
2018-01-24T06:49:02.062Z,11.62
2018-01-24T06:50:02.634Z,11.52
2018-01-24T06:51:03.221Z,11.70
2018-01-24T06:52:03.795Z,11.70
2018-01-24T06:53:04.381Z,11.66
2018-01-24T06:54:04.955Z,11.72
2018-01-24T06:55:05.529Z,11.68
2018-01-24T06:56:06.101Z,11.65
2018-01-24T06:57:06.672Z,11.75
2018-01-24T06:58:07.244Z,11.75
2018-01-24T06:59:07.818Z,11.68
2018-01-24T07:00:08.405Z,11.78
2018-01-24T07:01:08.979Z,11.83
2018-01-24T07:02:09.552Z,11.95
2018-01-24T07:03:10.127Z,11.86
2018-01-24T07:04:10.713Z,11.75
2018-01-24T07:05:11.288Z,11.73
2018-01-24T07:06:11.858Z,11.72
2018-01-24T07:07:12.432Z,11.75
2018-01-24T07:08:13.002Z,11.65
2018-01-24T07:09:13.578Z,11.63
2018-01-24T07:10:14.148Z,11.62
2018-01-24T07:11:14.722Z,11.54
2018-01-24T07:12:15.293Z,11.72
2018-01-24T07:13:15.867Z,11.73
2018-01-24T07:14:16.438Z,11.62
2018-01-24T07:15:17.012Z,11.66
2018-01-24T07:16:17.584Z,11.62
2018-01-24T07:17:18.171Z,11.68
2018-01-24T07:18:18.745Z,11.68
2018-01-24T07:19:19.330Z,11.66
2018-01-24T07:20:19.902Z,11.63
2018-01-24T07:21:20.474Z,11.69
2018-01-24T07:22:21.049Z,11.72
2018-01-24T07:23:21.622Z,11.72
2018-01-24T07:24:22.196Z,11.70
2018-01-24T07:25:22.768Z,11.77
2018-01-24T07:26:23.355Z,11.73
2018-01-24T07:27:23.928Z,11.78
2018-01-24T07:28:24.504Z,11.80
2018-01-24T07:29:25.087Z,11.81
2018-01-24T07:30:25.660Z,11.91
2018-01-24T07:31:26.233Z,11.87
2018-01-24T07:32:26.806Z,11.80
2018-01-24T07:33:27.381Z,11.80
2018-01-24T07:34:27.952Z,11.78
2018-01-24T07:35:28.528Z,11.80
2018-01-24T07:36:29.100Z,11.69
2018-01-24T07:37:29.673Z,11.66
2018-01-24T07:38:30.260Z,11.77
2018-01-24T07:39:30.832Z,11.72
2018-01-24T07:40:31.406Z,11.86
2018-01-24T07:41:31.982Z,11.87
2018-01-24T07:42:32.557Z,11.86
2018-01-24T07:43:33.130Z,11.91
2018-01-24T07:44:33.715Z,11.95
2018-01-24T07:45:34.288Z,11.95
2018-01-24T07:46:34.859Z,11.99
2018-01-24T07:47:35.431Z,12.04
2018-01-24T07:48:36.005Z,12.06
2018-01-24T07:49:36.581Z,11.88
2018-01-24T07:50:37.154Z,11.99
2018-01-24T07:51:37.729Z,11.95
2018-01-24T07:52:38.331Z,12.10
2018-01-24T07:53:38.876Z,12.06
2018-01-24T07:54:39.452Z,12.07
2018-01-24T07:55:40.026Z,12.03
2018-01-24T07:56:40.601Z,12.22
2018-01-24T07:57:41.175Z,12.07
2018-01-24T07:58:41.750Z,12.15
2018-01-24T07:59:42.326Z,12.09
2018-01-24T08:00:42.907Z,12.00
2018-01-24T08:01:43.473Z,12.06
2018-01-24T08:02:44.046Z,12.06
2018-01-24T08:03:44.620Z,12.06
2018-01-24T08:04:45.195Z,12.15
2018-01-24T08:05:45.768Z,12.09
2018-01-24T08:06:46.342Z,12.03
2018-01-24T08:07:46.916Z,12.13
2018-01-24T08:08:47.490Z,12.21
2018-01-24T08:09:48.066Z,12.17
2018-01-24T08:10:48.638Z,12.18
2018-01-24T08:11:49.212Z,12.24
2018-01-24T08:12:49.785Z,12.24
2018-01-24T08:13:50.359Z,12.29
2018-01-24T08:14:50.934Z,12.29
2018-01-24T08:15:51.508Z,12.28
2018-01-24T08:16:52.084Z,12.22
2018-01-24T08:17:52.671Z,12.22
2018-01-24T08:18:53.245Z,12.22
2018-01-24T08:19:53.821Z,12.17
2018-01-24T08:20:54.396Z,12.25
2018-01-24T08:21:54.970Z,12.25
2018-01-24T08:22:55.544Z,12.29
2018-01-24T08:23:56.119Z,12.31
2018-01-24T08:24:56.706Z,12.39
2018-01-24T08:25:57.280Z,12.28
2018-01-24T08:26:57.855Z,12.24
2018-01-24T08:27:58.429Z,12.24
2018-01-24T08:28:59.003Z,12.25
2018-01-24T08:29:59.579Z,12.35
2018-01-24T08:31:00.169Z,12.32
2018-01-24T08:32:00.744Z,12.27
2018-01-24T08:33:01.320Z,12.27
2018-01-24T08:34:01.894Z,12.32
2018-01-24T08:35:02.466Z,12.32
2018-01-24T08:36:03.043Z,12.36
2018-01-24T08:37:03.612Z,12.47
2018-01-24T08:38:04.195Z,12.36
2018-01-24T08:39:04.761Z,12.36
2018-01-24T08:40:05.338Z,12.42
2018-01-24T08:41:05.910Z,12.39
2018-01-24T08:42:06.486Z,12.45
2018-01-24T08:43:07.064Z,12.46
2018-01-24T08:44:07.638Z,12.39
2018-01-24T08:45:08.213Z,12.49
2018-01-24T08:46:08.800Z,12.46
2018-01-24T08:47:09.378Z,12.46
2018-01-24T08:48:09.953Z,12.47
2018-01-24T08:49:10.530Z,12.50
2018-01-24T08:50:11.142Z,12.54
2018-01-24T08:51:11.696Z,12.58
2018-01-24T08:52:12.283Z,12.54
2018-01-24T08:53:12.859Z,12.58
2018-01-24T08:54:13.437Z,12.65
2018-01-24T08:55:14.014Z,12.65
2018-01-24T08:56:14.604Z,12.55
2018-01-24T08:57:15.183Z,12.79
2018-01-24T08:58:15.758Z,12.67
2018-01-24T08:59:16.334Z,12.65
2018-01-24T09:00:16.909Z,12.67
2018-01-24T09:01:17.487Z,12.65
2018-01-24T09:02:18.063Z,12.70
2018-01-24T09:03:18.637Z,12.67
2018-01-24T09:04:19.214Z,12.62
2018-01-24T09:05:19.792Z,12.68
2018-01-24T09:06:20.370Z,12.70
2018-01-24T09:07:20.945Z,12.64
2018-01-24T09:08:21.526Z,12.55
2018-01-24T09:09:22.102Z,12.67
2018-01-24T09:10:22.681Z,12.65
2018-01-24T09:11:23.257Z,12.68
2018-01-24T09:12:23.833Z,12.70
2018-01-24T09:13:24.412Z,12.64
2018-01-24T09:14:24.988Z,12.76
2018-01-24T09:15:25.565Z,12.65
2018-01-24T09:16:26.155Z,12.70
2018-01-24T09:17:26.731Z,12.68
2018-01-24T09:18:27.311Z,12.68
2018-01-24T09:19:27.886Z,12.70
2018-01-24T09:20:28.462Z,12.72
2018-01-24T09:21:29.040Z,12.72
2018-01-24T09:22:29.617Z,12.75
2018-01-24T09:23:30.194Z,12.70
2018-01-24T09:24:30.771Z,12.78
2018-01-24T09:25:31.348Z,12.68
2018-01-24T09:26:31.925Z,12.67
2018-01-24T09:27:32.503Z,12.79
2018-01-24T09:28:33.079Z,12.68
2018-01-24T09:29:33.654Z,12.76
2018-01-24T09:30:34.231Z,12.64
2018-01-24T09:31:34.812Z,12.65
2018-01-24T09:32:35.393Z,12.79
2018-01-24T09:33:35.963Z,12.72
2018-01-24T09:34:36.542Z,12.80
2018-01-24T09:35:37.120Z,12.67
2018-01-24T09:36:37.693Z,12.73
2018-01-24T09:37:38.271Z,12.70
2018-01-24T09:38:38.846Z,12.73
2018-01-24T09:39:39.426Z,12.75
2018-01-24T09:40:40.004Z,12.67
2018-01-24T09:41:40.577Z,12.68
2018-01-24T09:42:41.153Z,12.68
2018-01-24T09:43:41.731Z,12.72
2018-01-24T09:44:42.306Z,12.73
2018-01-24T09:45:42.883Z,12.73
2018-01-24T09:46:43.459Z,12.70
2018-01-24T09:47:44.036Z,12.73
2018-01-24T09:48:44.613Z,12.79
2018-01-24T09:49:45.189Z,12.79
2018-01-24T09:50:45.766Z,12.68
2018-01-24T09:51:46.343Z,12.82
2018-01-24T09:52:46.921Z,12.67
2018-01-24T09:53:47.513Z,12.65
2018-01-24T09:54:48.090Z,12.78
2018-01-24T09:55:48.672Z,12.79
2018-01-24T09:56:49.261Z,12.68
2018-01-24T09:57:49.852Z,12.68
2018-01-24T09:58:50.428Z,12.79
2018-01-24T09:59:51.007Z,12.78
2018-01-24T10:00:51.584Z,12.80
2018-01-24T10:01:52.161Z,12.80
2018-01-24T10:02:52.740Z,12.82
2018-01-24T10:03:53.318Z,12.79
2018-01-24T10:04:53.896Z,12.78
2018-01-24T10:05:54.475Z,12.83
2018-01-24T10:06:55.052Z,12.83
2018-01-24T10:07:55.632Z,12.93
2018-01-24T10:08:56.224Z,12.85
2018-01-24T10:09:56.815Z,12.90
2018-01-24T10:10:57.393Z,12.85
2018-01-24T10:11:57.980Z,12.86
2018-01-24T10:12:58.557Z,12.91
2018-01-24T10:13:59.133Z,12.90
2018-01-24T10:14:59.710Z,12.90
2018-01-24T10:16:00.287Z,12.85
2018-01-24T10:17:00.860Z,12.80
2018-01-24T10:18:01.435Z,12.75
2018-01-24T10:19:02.017Z,12.75
2018-01-24T10:20:02.585Z,12.76
2018-01-24T10:21:03.161Z,12.85
2018-01-24T10:22:03.735Z,12.73
2018-01-24T10:23:04.309Z,12.78
2018-01-24T10:24:04.886Z,12.82
2018-01-24T10:25:05.476Z,12.80
2018-01-24T10:26:06.039Z,12.93
2018-01-24T10:27:06.616Z,12.85
2018-01-24T10:28:07.194Z,12.91
2018-01-24T10:29:07.769Z,12.87
2018-01-24T10:30:08.347Z,12.93
2018-01-24T10:31:08.925Z,12.87
2018-01-24T10:32:09.502Z,12.90
2018-01-24T10:33:10.080Z,12.94
2018-01-24T10:34:10.659Z,12.98
2018-01-24T10:35:11.237Z,12.97
2018-01-24T10:36:11.817Z,13.00
2018-01-24T10:37:12.394Z,13.04
2018-01-24T10:38:12.971Z,13.04
2018-01-24T10:39:13.550Z,13.00
2018-01-24T10:40:14.132Z,13.04
2018-01-24T10:41:14.705Z,13.09
2018-01-24T10:42:15.372Z,13.12
2018-01-24T10:43:15.862Z,13.04
2018-01-24T10:44:16.445Z,13.11
2018-01-24T10:45:17.032Z,13.04
2018-01-24T10:46:17.612Z,13.15
2018-01-24T10:47:18.189Z,13.18
2018-01-24T10:48:18.768Z,13.25
2018-01-24T10:49:19.361Z,13.19
2018-01-24T10:50:19.940Z,13.20
2018-01-24T10:51:20.518Z,13.23
2018-01-24T10:52:21.097Z,13.30
2018-01-24T10:53:21.676Z,13.38
2018-01-24T10:54:22.255Z,13.37
2018-01-24T10:55:22.837Z,13.31
2018-01-24T10:56:23.412Z,13.41
2018-01-24T10:57:23.991Z,13.44
2018-01-24T10:58:24.569Z,13.41
2018-01-24T10:59:25.161Z,13.42
2018-01-24T11:00:25.745Z,13.49
2018-01-24T11:01:26.318Z,13.42
2018-01-24T11:02:26.896Z,13.46
2018-01-24T11:03:27.476Z,13.53
2018-01-24T11:04:28.058Z,13.49
2018-01-24T11:05:28.632Z,13.41
2018-01-24T11:06:29.215Z,13.47
2018-01-24T11:07:29.804Z,13.56
2018-01-24T11:08:30.382Z,13.41
2018-01-24T11:09:30.960Z,13.57
2018-01-24T11:10:31.541Z,13.62
2018-01-24T11:11:32.132Z,13.56
2018-01-24T11:12:32.711Z,13.54
2018-01-24T11:13:33.289Z,13.53
2018-01-24T11:14:33.879Z,13.57
2018-01-24T11:15:34.457Z,13.63
2018-01-24T11:16:35.037Z,13.65
2018-01-24T11:17:35.614Z,13.67
2018-01-24T11:18:36.193Z,13.63
2018-01-24T11:19:36.771Z,13.75
2018-01-24T11:20:37.351Z,13.79
2018-01-24T11:21:37.928Z,13.72
2018-01-24T11:22:38.506Z,13.72
2018-01-24T11:23:39.086Z,13.67
2018-01-24T11:24:39.664Z,13.74
2018-01-24T11:25:40.242Z,13.85
2018-01-24T11:26:40.821Z,13.70
2018-01-24T11:27:41.398Z,13.72
2018-01-24T11:28:41.991Z,13.71
2018-01-24T11:29:42.569Z,13.71
2018-01-24T11:30:43.148Z,13.74
2018-01-24T11:31:43.727Z,13.79
2018-01-24T11:32:44.304Z,13.83
2018-01-24T11:33:44.884Z,13.79
2018-01-24T11:34:45.461Z,13.75
2018-01-24T11:35:46.039Z,13.77
2018-01-24T11:36:46.618Z,13.77
2018-01-24T11:37:47.197Z,13.74
2018-01-24T11:38:47.774Z,13.81
2018-01-24T11:39:48.365Z,13.77
2018-01-24T11:40:48.946Z,13.86
2018-01-24T11:41:49.542Z,13.87
2018-01-24T11:42:50.118Z,13.75
2018-01-24T11:43:50.707Z,13.81
2018-01-24T11:44:51.299Z,13.72
2018-01-24T11:45:51.876Z,13.75
2018-01-24T11:46:52.455Z,13.74
2018-01-24T11:47:53.034Z,13.70
2018-01-24T11:48:53.611Z,13.70
2018-01-24T11:49:54.190Z,13.62
2018-01-24T11:50:54.767Z,13.74
2018-01-24T11:51:55.344Z,13.75
2018-01-24T11:52:55.925Z,13.72
2018-01-24T11:53:56.501Z,13.70
2018-01-24T11:54:57.082Z,13.75
2018-01-24T11:55:57.655Z,13.77
2018-01-24T11:56:58.233Z,13.75
2018-01-24T11:57:58.827Z,13.75
2018-01-24T11:58:59.405Z,13.74
2018-01-24T11:59:59.982Z,13.75
2018-01-24T12:01:00.559Z,13.77
2018-01-24T12:02:01.137Z,13.71
2018-01-24T12:03:01.714Z,13.68
2018-01-24T12:04:02.291Z,13.74
2018-01-24T12:05:02.873Z,13.87
2018-01-24T12:06:03.463Z,13.71
2018-01-24T12:07:04.041Z,13.74
2018-01-24T12:08:04.620Z,13.75
2018-01-24T12:09:05.197Z,13.78
2018-01-24T12:10:05.774Z,13.85
2018-01-24T12:11:06.351Z,13.89
2018-01-24T12:12:06.931Z,13.83
2018-01-24T12:13:07.507Z,13.72
2018-01-24T12:14:08.087Z,13.78
2018-01-24T12:15:08.666Z,13.85
2018-01-24T12:16:09.241Z,13.89
2018-01-24T12:17:09.819Z,13.85
2018-01-24T12:18:10.397Z,13.92
2018-01-24T12:19:10.973Z,13.79
2018-01-24T12:20:11.569Z,13.89
2018-01-24T12:21:12.142Z,13.95
2018-01-24T12:22:12.731Z,13.83
2018-01-24T12:23:13.310Z,13.79
2018-01-24T12:24:13.889Z,13.83
2018-01-24T12:25:14.465Z,13.87
2018-01-24T12:26:15.041Z,13.85
2018-01-24T12:27:15.620Z,13.89
2018-01-24T12:28:16.200Z,13.85
2018-01-24T12:29:16.788Z,13.83
2018-01-24T12:30:17.365Z,13.99
2018-01-24T12:31:17.983Z,13.93
2018-01-24T12:32:18.521Z,13.92
2018-01-24T12:33:19.099Z,13.89
2018-01-24T12:34:19.675Z,13.87
2018-01-24T12:35:20.254Z,13.86
2018-01-24T12:36:20.847Z,13.95
2018-01-24T12:37:21.424Z,13.99
2018-01-24T12:38:22.002Z,13.93
2018-01-24T12:39:22.582Z,13.90
2018-01-24T12:40:23.158Z,13.92
2018-01-24T12:41:23.786Z,13.92
2018-01-24T12:42:24.378Z,13.92
2018-01-24T12:43:24.956Z,13.86
2018-01-24T12:44:25.548Z,13.93
2018-01-24T12:45:26.169Z,13.92
2018-01-24T12:46:26.703Z,13.96
2018-01-24T12:47:27.281Z,13.92
2018-01-24T12:48:27.859Z,14.00
2018-01-24T12:49:28.437Z,13.92
2018-01-24T12:50:29.016Z,13.95
2018-01-24T12:51:29.592Z,13.95
2018-01-24T12:52:30.169Z,13.92
2018-01-24T12:53:30.760Z,13.89
2018-01-24T12:54:31.336Z,13.97
2018-01-24T12:55:31.911Z,13.97
2018-01-24T12:56:32.487Z,14.03
2018-01-24T12:57:33.063Z,13.92
2018-01-24T12:58:33.641Z,13.92
2018-01-24T12:59:34.219Z,13.89
2018-01-24T13:00:34.794Z,13.83